Time;durP1;ratioP1;P1;durP2;ratioP2;P2;SDS_P1;SDS_P2;PMS_P1;PMS_P2;Temp;Humidity;BMP_temperature;BMP_pressure;BME280_temperature;BME280_humidity;BME280_pressure;Samples;Min_cycle;Max_cycle;Signal;HPM_P1;HPM_P2
2024/01/01 00:02:16;;;;;;;27.50;9.90;;;;;;;7.94;85.19;99745.28;5086222;28;20061;-73
2024/01/01 00:04:42;;;;;;;32.90;11.32;;;;;;;7.89;85.46;99745.00;5051261;28;20038;-73
2024/01/01 00:07:07;;;;;;;36.20;11.43;;;;;;;7.88;86.07;99748.53;5058984;28;20490;-73
2024/01/01 00:09:33;;;;;;;29.70;11.13;;;;;;;7.91;85.47;99753.38;5079860;28;20059;-73
2024/01/01 00:11:58;;;;;;;31.02;11.50;;;;;;;7.91;85.92;99755.97;5077061;28;20020;-73
2024/01/01 00:14:24;;;;;;;35.65;12.40;;;;;;;7.82;86.22;99753.53;5048338;28;20036;-72
2024/01/01 00:16:49;;;;;;;37.20;13.60;;;;;;;7.90;85.82;99751.75;5078248;28;20039;-73
2024/01/01 00:19:14;;;;;;;27.30;13.60;;;;;;;7.89;84.88;99750.16;5057951;28;20040;-73
2024/01/01 00:21:40;;;;;;;28.27;13.45;;;;;;;7.86;84.90;99747.91;5045723;28;20028;-73
2024/01/01 00:24:06;;;;;;;30.20;12.57;;;;;;;7.80;85.63;99741.63;5078809;28;20479;-73
2024/01/01 00:26:31;;;;;;;25.13;11.30;;;;;;;7.89;85.47;99747.59;5069452;28;20032;-73
2024/01/01 00:28:59;;;;;;;33.10;13.63;;;;;;;7.86;85.36;99742.75;5061625;28;20045;-74
2024/01/01 00:31:25;;;;;;;27.17;11.40;;;;;;;7.81;84.98;99739.84;5062980;28;20088;-73
2024/01/01 00:33:51;;;;;;;28.25;10.05;;;;;;;7.81;85.30;99742.41;5060797;28;20056;-73
2024/01/01 00:36:16;;;;;;;21.98;8.70;;;;;;;7.86;84.01;99740.16;5082825;28;20024;-72
2024/01/01 00:38:41;;;;;;;18.13;8.57;;;;;;;7.74;84.91;99737.13;5060530;28;20419;-73
2024/01/01 00:41:13;;;;;;;23.92;8.38;;;;;;;7.75;84.58;99736.13;5049711;28;20044;-73
2024/01/01 00:43:38;;;;;;;21.70;7.43;;;;;;;7.70;84.69;99727.25;5076497;28;20124;-72
2024/01/01 00:46:04;;;;;;;25.52;7.30;;;;;;;7.71;84.56;99728.88;5049312;28;20452;-73
2024/01/01 00:48:29;;;;;;;17.20;5.88;;;;;;;7.70;84.38;99735.00;5081064;28;20044;-73
2024/01/01 00:50:55;;;;;;;27.63;6.47;;;;;;;7.80;84.01;99739.03;5059798;28;20028;-73
2024/01/01 00:53:20;;;;;;;15.98;5.43;;;;;;;7.85;83.03;99720.47;5049913;28;20036;-72
2024/01/01 00:55:46;;;;;;;18.92;5.60;;;;;;;7.82;83.40;99725.97;5065190;28;20093;-73
2024/01/01 00:58:12;;;;;;;20.02;4.72;;;;;;;7.80;82.74;99725.34;5062056;28;20051;-73
2024/01/01 01:00:38;;;;;;;19.52;5.65;;;;;;;7.83;82.67;99719.81;5078352;28;20051;-73
2024/01/01 01:03:04;;;;;;;20.77;3.92;;;;;;;7.86;82.08;99710.97;5059867;28;20028;-73
2024/01/01 01:05:29;;;;;;;17.90;3.78;;;;;;;7.87;82.03;99708.19;5044478;28;20145;-73
2024/01/01 01:07:55;;;;;;;15.05;3.60;;;;;;;7.92;81.21;99712.88;5047204;28;20043;-73
2024/01/01 01:10:20;;;;;;;15.75;3.63;;;;;;;7.94;81.21;99714.31;5069433;28;20098;-73
2024/01/01 01:12:46;;;;;;;17.58;3.22;;;;;;;7.96;80.16;99704.63;5076925;28;20718;-73
2024/01/01 01:15:11;;;;;;;12.93;2.70;;;;;;;7.98;80.85;99710.44;5069292;28;20043;-74
2024/01/01 01:17:37;;;;;;;11.57;2.67;;;;;;;7.96;82.30;99714.16;5084580;28;20453;-73
2024/01/01 01:20:03;;;;;;;13.90;2.60;;;;;;;7.85;83.56;99714.50;5069384;28;20036;-73
2024/01/01 01:22:28;;;;;;;15.13;2.90;;;;;;;7.83;85.12;99712.09;5054199;28;20061;-73
2024/01/01 01:24:53;;;;;;;13.45;2.83;;;;;;;7.79;85.53;99711.59;5067190;28;21859;-73
2024/01/01 01:27:19;;;;;;;9.90;2.65;;;;;;;7.81;85.11;99711.44;5088420;28;20027;-73
2024/01/01 01:29:44;;;;;;;13.70;2.40;;;;;;;7.75;85.65;99709.53;5067528;28;20032;-73
2024/01/01 01:32:10;;;;;;;16.27;2.67;;;;;;;7.72;86.01;99713.25;5085036;28;21879;-73
2024/01/01 01:34:35;;;;;;;12.60;3.10;;;;;;;7.79;87.03;99714.19;5062035;28;20243;-73
2024/01/01 01:37:01;;;;;;;11.48;2.17;;;;;;;7.78;86.70;99725.50;5052242;28;20036;-72
2024/01/01 01:39:26;;;;;;;17.35;2.47;;;;;;;7.60;88.22;99724.88;5086909;28;20051;-73
2024/01/01 01:41:52;;;;;;;12.90;2.45;;;;;;;7.60;89.27;99737.75;5067182;28;20043;-73
2024/01/01 01:44:17;;;;;;;13.43;2.85;;;;;;;7.56;91.37;99744.22;5058438;28;20024;-73
2024/01/01 01:46:43;;;;;;;23.23;3.35;;;;;;;7.52;94.01;99745.50;5042147;28;20398;-74
2024/01/01 01:49:08;;;;;;;16.90;2.50;;;;;;;7.34;96.30;99753.41;5054879;28;20035;-74
2024/01/01 01:51:34;;;;;;;20.65;2.78;;;;;;;7.32;98.31;99761.28;5067146;28;20036;-74
2024/01/01 01:53:59;;;;;;;14.07;3.28;;;;;;;7.08;100.00;99767.22;5067953;28;20089;-73
2024/01/01 01:56:26;;;;;;;19.15;3.78;;;;;;;6.90;100.00;99766.53;5065603;28;20029;-74
2024/01/01 01:58:52;;;;;;;14.00;4.35;;;;;;;6.88;100.00;99786.50;5068607;28;20432;-74
2024/01/01 02:01:18;;;;;;;11.35;3.60;;;;;;;6.76;100.00;99785.97;5067645;28;20119;-73
2024/01/01 02:03:44;;;;;;;15.18;3.30;;;;;;;6.79;100.00;99777.94;5069393;28;20036;-75
2024/01/01 02:06:11;;;;;;;18.30;4.70;;;;;;;6.74;100.00;99787.91;5059526;28;20034;-74
2024/01/01 02:08:37;;;;;;;13.60;4.75;;;;;;;6.69;100.00;99790.94;5043133;28;20040;-74
2024/01/01 02:11:03;;;;;;;13.77;6.10;;;;;;;6.53;100.00;99788.28;5080844;28;20039;-75
2024/01/01 02:13:30;;;;;;;22.08;5.97;;;;;;;6.51;100.00;99778.16;5041947;28;20128;-74
2024/01/01 02:15:56;;;;;;;20.90;6.32;;;;;;;6.41;100.00;99772.31;5058152;28;20631;-74
2024/01/01 02:18:22;;;;;;;16.15;6.53;;;;;;;6.39;100.00;99763.94;5059714;28;20037;-74
2024/01/01 02:20:48;;;;;;;21.60;4.95;;;;;;;6.41;100.00;99772.31;5047991;28;20024;-75
2024/01/01 02:23:19;;;;;;;18.58;4.85;;;;;;;6.36;100.00;99779.69;5063047;28;20092;-74
2024/01/01 02:25:45;;;;;;;21.95;4.32;;;;;;;6.34;100.00;99772.09;5061519;28;20032;-73
2024/01/01 02:28:11;;;;;;;15.32;3.28;;;;;;;6.30;100.00;99770.81;5073949;28;20040;-73
2024/01/01 02:30:36;;;;;;;19.05;2.70;;;;;;;6.33;100.00;99772.25;5060242;28;20052;-73
2024/01/01 02:33:09;;;;;;;21.33;3.45;;;;;;;6.43;100.00;99770.38;5059679;28;20048;-73
2024/01/01 02:35:35;;;;;;;13.90;2.10;;;;;;;6.35;100.00;99778.88;5060913;28;20052;-73
2024/01/01 02:38:04;;;;;;;18.85;2.60;;;;;;;6.31;100.00;99772.44;5071002;28;20047;-73
2024/01/01 02:40:32;;;;;;;13.48;2.15;;;;;;;6.31;100.00;99766.47;5073252;28;20160;-72
2024/01/01 02:43:00;;;;;;;18.25;3.15;;;;;;;6.38;100.00;99777.75;5056805;28;20035;-72
2024/01/01 02:45:27;;;;;;;14.85;2.13;;;;;;;6.30;100.00;99775.16;5049213;28;20555;-73
2024/01/01 02:47:53;;;;;;;14.40;2.50;;;;;;;6.27;100.00;99767.72;5056196;28;20425;-72
2024/01/01 02:50:20;;;;;;;21.08;2.65;;;;;;;6.23;100.00;99764.66;5044747;28;20032;-73
2024/01/01 02:52:46;;;;;;;16.85;2.53;;;;;;;6.14;100.00;99766.38;5059370;28;22282;-73
2024/01/01 02:55:11;;;;;;;16.20;2.72;;;;;;;6.27;100.00;99780.59;5058688;28;20044;-73
2024/01/01 02:57:37;;;;;;;25.88;2.80;;;;;;;6.32;100.00;99788.69;5059333;28;20035;-73
2024/01/01 03:00:03;;;;;;;13.20;2.88;;;;;;;6.34;100.00;99787.56;5050029;28;20036;-72
2024/01/01 03:02:29;;;;;;;18.30;3.13;;;;;;;6.38;100.00;99791.44;5048914;28;20023;-72
2024/01/01 03:04:54;;;;;;;18.88;2.45;;;;;;;6.35;100.00;99786.63;5056685;28;20036;-73
2024/01/01 03:07:20;;;;;;;15.48;2.20;;;;;;;6.28;100.00;99780.44;5060949;28;20032;-72
2024/01/01 03:09:46;;;;;;;18.70;3.28;;;;;;;6.30;100.00;99781.09;5060392;28;20035;-73
2024/01/01 03:12:11;;;;;;;18.30;2.58;;;;;;;6.27;100.00;99780.59;5075711;28;20394;-72
2024/01/01 03:14:37;;;;;;;19.83;3.38;;;;;;;6.37;100.00;99782.13;5043341;28;20029;-72
2024/01/01 03:17:03;;;;;;;24.00;3.33;;;;;;;6.36;100.00;99774.53;5038882;28;20047;-73
2024/01/01 03:19:28;;;;;;;25.30;3.70;;;;;;;6.35;100.00;99773.75;5039282;28;20074;-72
2024/01/01 03:21:53;;;;;;;22.90;3.28;;;;;;;6.33;100.00;99779.97;5058973;28;20028;-72
2024/01/01 03:24:19;;;;;;;20.23;3.72;;;;;;;6.39;100.00;99780.19;5051955;28;20036;-72
2024/01/01 03:26:44;;;;;;;19.45;4.72;;;;;;;6.46;100.00;99766.69;5056206;28;20054;-74
2024/01/01 03:29:10;;;;;;;21.33;4.18;;;;;;;6.42;100.00;99769.59;5054855;28;20040;-73
2024/01/01 03:31:35;;;;;;;20.10;5.00;;;;;;;6.37;100.00;99766.66;5056288;28;20040;-72
2024/01/01 03:34:01;;;;;;;15.20;3.25;;;;;;;6.38;100.00;99775.19;5076500;28;20130;-71
2024/01/01 03:36:26;;;;;;;16.80;4.65;;;;;;;6.37;100.00;99769.25;5049309;28;20040;-72
2024/01/01 03:38:52;;;;;;;24.05;3.90;;;;;;;6.39;100.00;99764.75;5054548;28;20039;-72
2024/01/01 03:41:17;;;;;;;22.77;4.18;;;;;;;6.46;100.00;99766.69;5057010;28;20020;-72
2024/01/01 03:43:43;;;;;;;20.50;5.40;;;;;;;6.52;100.00;99766.09;5080954;28;20035;-72
2024/01/01 03:46:08;;;;;;;21.50;5.32;;;;;;;6.41;100.00;99765.38;5043204;28;20546;-72
2024/01/01 03:48:34;;;;;;;25.02;5.85;;;;;;;6.40;100.00;99768.94;5057053;28;20055;-73
2024/01/01 03:50:59;;;;;;;25.98;4.93;;;;;;;6.46;100.00;99774.41;5055234;28;20036;-73
2024/01/01 03:53:25;;;;;;;22.23;5.38;;;;;;;6.46;100.00;99770.09;5075593;28;20036;-72
2024/01/01 03:55:50;;;;;;;26.45;4.90;;;;;;;6.42;100.00;99768.75;5077398;28;20033;-72
2024/01/01 03:58:16;;;;;;;17.08;4.65;;;;;;;6.41;100.00;99764.59;5071806;28;20045;-72
2024/01/01 04:00:41;;;;;;;28.13;4.95;;;;;;;6.43;100.00;99768.63;5073922;28;20474;-72
2024/01/01 04:03:07;;;;;;;28.25;6.72;;;;;;;6.39;100.00;99772.47;5058962;28;20067;-72
2024/01/01 04:05:32;;;;;;;20.42;4.38;;;;;;;6.49;100.00;99753.50;5059208;28;20039;-72
2024/01/01 04:07:58;;;;;;;20.02;4.28;;;;;;;6.40;100.00;99762.97;5055847;28;20054;-72
2024/01/01 04:10:23;;;;;;;20.38;3.85;;;;;;;6.40;100.00;99750.09;5076289;28;20048;-72
2024/01/01 04:12:48;;;;;;;24.83;4.22;;;;;;;6.44;100.00;99753.97;5071369;28;22279;-72
2024/01/01 04:15:14;;;;;;;23.85;4.47;;;;;;;6.36;100.00;99759.88;5055649;28;20047;-73
2024/01/01 04:17:40;;;;;;;17.95;3.35;;;;;;;6.48;100.00;99762.19;5056217;28;20127;-72
2024/01/01 04:20:10;;;;;;;23.92;3.35;;;;;;;6.53;100.00;99752.25;5056808;28;20044;-73
2024/01/01 04:22:37;;;;;;;14.10;3.38;;;;;;;6.54;100.00;99764.16;5060275;28;20762;-71
2024/01/01 04:25:03;;;;;;;29.23;4.95;;;;;;;6.47;100.00;99756.25;5063597;28;20453;-73
2024/01/01 04:27:29;;;;;;;16.50;3.60;;;;;;;6.55;100.00;99764.00;5078521;28;20112;-72
2024/01/01 04:29:54;;;;;;;22.83;3.33;;;;;;;6.44;100.00;99769.41;5055154;28;20135;-72
2024/01/01 04:32:20;;;;;;;22.98;3.55;;;;;;;6.48;100.00;99775.06;5048082;28;20039;-72
2024/01/01 04:34:45;;;;;;;21.05;2.17;;;;;;;6.51;100.00;99754.97;5059964;28;20024;-72
2024/01/01 04:37:11;;;;;;;17.90;2.28;;;;;;;6.61;100.00;99765.13;5058268;28;20035;-72
2024/01/01 04:39:36;;;;;;;15.40;2.33;;;;;;;6.61;99.28;99762.56;5075622;28;20037;-72
2024/01/01 04:42:03;;;;;;;21.90;2.67;;;;;;;6.60;98.83;99758.38;5046585;28;20040;-72
2024/01/01 04:44:29;;;;;;;15.65;3.72;;;;;;;6.66;99.75;99765.50;5059163;28;20252;-72
2024/01/01 04:46:54;;;;;;;17.23;3.15;;;;;;;6.59;99.87;99767.06;5083394;28;20024;-73
2024/01/01 04:49:20;;;;;;;21.65;3.28;;;;;;;6.65;99.10;99775.94;5065911;28;20553;-72
2024/01/01 04:51:45;;;;;;;28.17;3.28;;;;;;;6.60;98.73;99777.22;5060143;28;20031;-73
2024/01/01 04:54:11;;;;;;;24.40;2.90;;;;;;;6.51;100.00;99773.00;5086887;28;20507;-72
2024/01/01 04:56:36;;;;;;;18.23;3.00;;;;;;;6.63;98.64;99787.22;5071180;28;20032;-73
2024/01/01 04:59:03;;;;;;;19.00;2.80;;;;;;;6.61;98.69;99796.06;5067712;28;20024;-72
2024/01/01 05:01:28;;;;;;;24.45;3.60;;;;;;;6.64;98.21;99793.19;5060455;28;20073;-72
2024/01/01 05:03:54;;;;;;;22.60;2.47;;;;;;;6.69;97.05;99788.38;5065809;28;20055;-71
2024/01/01 05:06:19;;;;;;;17.67;2.17;;;;;;;6.82;96.79;99791.31;5066992;28;20032;-73
2024/01/01 05:08:45;;;;;;;20.88;3.00;;;;;;;6.80;96.71;99784.72;5066575;28;20402;-72
2024/01/01 05:11:10;;;;;;;15.10;3.08;;;;;;;6.76;96.55;99781.66;5081024;28;20024;-72
2024/01/01 05:13:37;;;;;;;25.67;3.63;;;;;;;6.66;97.31;99787.88;5081850;28;20070;-72
2024/01/01 05:16:03;;;;;;;25.42;3.10;;;;;;;6.71;97.24;99794.19;5082613;28;20031;-72
2024/01/01 05:18:29;;;;;;;16.90;3.15;;;;;;;6.62;97.26;99790.75;5050789;28;20117;-72
2024/01/01 05:20:54;;;;;;;18.70;3.55;;;;;;;6.75;96.53;99789.53;5068035;28;20158;-72
2024/01/01 05:23:19;;;;;;;20.30;3.08;;;;;;;6.75;95.44;99787.75;5066105;28;20040;-72
2024/01/01 05:25:45;;;;;;;25.70;3.53;;;;;;;6.68;96.04;99784.16;5068207;28;20025;-72
2024/01/01 05:28:10;;;;;;;23.08;2.92;;;;;;;6.65;96.88;99799.13;5078906;28;20055;-72
2024/01/01 05:30:36;;;;;;;23.17;3.25;;;;;;;6.80;95.73;99793.25;5064873;28;20424;-72
2024/01/01 05:33:02;;;;;;;18.83;3.17;;;;;;;6.69;96.24;99803.03;5084126;28;20027;-72
2024/01/01 05:35:27;;;;;;;22.15;3.45;;;;;;;6.75;96.52;99803.22;5089271;28;20051;-72
2024/01/01 05:37:54;;;;;;;16.77;2.75;;;;;;;6.79;96.12;99798.56;5085487;28;20522;-72
2024/01/01 05:40:20;;;;;;;19.77;2.60;;;;;;;6.68;96.52;99804.78;5083621;28;20036;-72
2024/01/01 05:42:45;;;;;;;17.70;2.65;;;;;;;6.78;95.98;99802.06;5083062;28;20039;-72
2024/01/01 05:45:11;;;;;;;25.83;4.30;;;;;;;6.76;95.87;99804.00;5065094;28;20039;-72
2024/01/01 05:47:36;;;;;;;19.30;3.25;;;;;;;6.83;95.69;99817.88;5066660;28;20032;-74
2024/01/01 05:50:02;;;;;;;14.48;2.28;;;;;;;6.87;94.96;99813.22;5050248;28;20395;-72
2024/01/01 05:52:28;;;;;;;16.20;2.50;;;;;;;6.79;95.08;99817.38;5071491;28;20032;-72
2024/01/01 05:54:53;;;;;;;22.73;3.15;;;;;;;6.81;95.65;99820.63;5060467;28;20113;-72
2024/01/01 05:57:18;;;;;;;17.58;3.25;;;;;;;6.75;95.68;99835.91;5054158;28;20028;-73
2024/01/01 05:59:44;;;;;;;15.18;2.33;;;;;;;6.85;94.53;99835.78;5083709;28;20048;-72
2024/01/01 06:02:09;;;;;;;23.17;3.83;;;;;;;6.85;94.60;99839.16;5086997;28;20045;-72
2024/01/01 06:04:35;;;;;;;18.45;3.08;;;;;;;6.78;94.94;99838.97;5055779;28;20032;-72
2024/01/01 06:07:00;;;;;;;19.65;3.70;;;;;;;6.80;95.61;99833.69;5070138;28;20028;-73
2024/01/01 06:09:26;;;;;;;17.10;3.22;;;;;;;6.74;96.33;99853.13;5048388;28;20402;-72
2024/01/01 06:11:51;;;;;;;17.73;2.15;;;;;;;6.72;96.95;99847.31;5080180;28;20032;-73
2024/01/01 06:14:17;;;;;;;13.18;2.92;;;;;;;6.63;97.63;99855.97;5070917;28;20081;-72
2024/01/01 06:16:44;;;;;;;19.15;1.98;;;;;;;6.61;99.01;99863.03;5075842;28;20036;-72
2024/01/01 06:19:10;;;;;;;16.45;2.83;;;;;;;6.60;100.00;99869.16;5068445;28;20438;-72
2024/01/01 06:21:36;;;;;;;18.75;2.90;;;;;;;6.50;100.00;99869.28;5083366;28;20028;-74
2024/01/01 06:24:01;;;;;;;21.92;2.17;;;;;;;6.43;100.00;99870.81;5048328;28;20031;-73
2024/01/01 06:26:27;;;;;;;25.52;4.28;;;;;;;6.36;100.00;99875.75;5081960;28;20124;-74
2024/01/01 06:28:52;;;;;;;15.30;2.40;;;;;;;6.27;100.00;99891.31;5068733;28;20093;-72
2024/01/01 06:31:17;;;;;;;21.90;2.85;;;;;;;6.28;100.00;99896.31;5054741;28;20035;-73
2024/01/01 06:33:43;;;;;;;11.75;1.88;;;;;;;6.26;100.00;99893.09;5082695;28;20051;-73
2024/01/01 06:36:09;;;;;;;16.33;2.50;;;;;;;6.29;100.00;99897.13;5083085;28;20027;-73
2024/01/01 06:38:36;;;;;;;15.98;2.28;;;;;;;6.23;100.00;99899.34;5047135;28;20040;-72
2024/01/01 06:41:02;;;;;;;17.70;2.40;;;;;;;6.20;100.00;99898.84;5070053;28;20032;-72
2024/01/01 06:43:27;;;;;;;20.15;2.60;;;;;;;6.17;100.00;99896.56;5065911;28;20036;-73
2024/01/01 06:45:53;;;;;;;21.23;2.83;;;;;;;6.13;100.00;99908.91;5065946;28;20039;-73
2024/01/01 06:48:18;;;;;;;18.73;2.55;;;;;;;6.08;100.00;99903.38;5082858;28;20036;-73
2024/01/01 06:50:44;;;;;;;14.80;2.50;;;;;;;6.14;100.00;99913.13;5066513;28;20028;-73
2024/01/01 06:53:09;;;;;;;15.50;2.95;;;;;;;6.17;100.00;99920.53;5055919;28;20055;-72
2024/01/01 06:55:35;;;;;;;17.38;2.60;;;;;;;6.14;100.00;99920.00;5066132;28;20035;-72
2024/01/01 06:58:00;;;;;;;12.10;2.35;;;;;;;6.10;100.00;99924.63;5078261;28;20035;-72
2024/01/01 07:00:26;;;;;;;12.30;1.42;;;;;;;6.08;100.00;99923.19;5083077;28;20020;-72
2024/01/01 07:02:51;;;;;;;15.23;2.00;;;;;;;6.11;100.00;99917.75;5068440;28;20427;-72
2024/01/01 07:05:17;;;;;;;18.80;3.85;;;;;;;6.12;100.00;99932.22;5089641;28;20394;-71
2024/01/01 07:07:42;;;;;;;9.57;1.80;;;;;;;6.13;100.00;99931.28;5082785;28;20027;-72
2024/01/01 07:10:08;;;;;;;16.50;2.25;;;;;;;6.19;100.00;99930.69;5059949;28;20096;-73
2024/01/01 07:12:33;;;;;;;14.93;2.20;;;;;;;6.07;100.00;99942.16;5065154;28;20035;-73
2024/01/01 07:15:00;;;;;;;16.58;1.67;;;;;;;6.14;100.00;99951.72;5084120;28;21286;-72
2024/01/01 07:17:27;;;;;;;11.13;1.30;;;;;;;6.14;100.00;99949.16;5054631;28;20032;-72
2024/01/01 07:19:53;;;;;;;9.95;2.20;;;;;;;6.14;100.00;99956.03;5071680;28;20031;-72
2024/01/01 07:22:18;;;;;;;17.17;2.53;;;;;;;6.18;100.00;99960.78;5065916;28;20039;-72
2024/01/01 07:24:44;;;;;;;18.38;2.55;;;;;;;6.20;100.00;99955.47;5077959;28;20143;-72
2024/01/01 07:27:10;;;;;;;10.95;1.40;;;;;;;6.11;100.00;99956.34;5080788;28;20029;-73
2024/01/01 07:29:35;;;;;;;10.05;2.35;;;;;;;6.18;100.00;99965.13;5063954;28;20138;-72
2024/01/01 07:32:01;;;;;;;14.70;1.65;;;;;;;6.17;100.00;99976.34;5048961;28;20028;-71
2024/01/01 07:34:26;;;;;;;15.45;2.42;;;;;;;6.18;100.00;99965.91;5082410;28;20036;-72
2024/01/01 07:36:54;;;;;;;11.52;1.67;;;;;;;6.21;100.00;99981.06;5063437;28;20043;-72
2024/01/01 07:39:20;;;;;;;10.98;1.58;;;;;;;6.18;100.00;99990.84;5078418;28;20094;-71
2024/01/01 07:41:47;;;;;;;15.30;1.30;;;;;;;6.19;100.00;99979.59;5081252;28;20032;-72
2024/01/01 07:44:12;;;;;;;13.20;1.63;;;;;;;6.20;100.00;100005.19;5061183;28;20098;-72
2024/01/01 07:46:39;;;;;;;22.95;7.78;;;;;;;6.04;100.00;99992.16;5079546;28;20474;-72
2024/01/01 07:49:06;;;;;;;11.52;3.75;;;;;;;6.10;100.00;99990.75;5046487;28;20032;-72
2024/01/01 07:51:32;;;;;;;17.23;4.47;;;;;;;6.09;100.00;99989.97;5067561;28;20040;-72
2024/01/01 07:53:58;;;;;;;9.82;1.40;;;;;;;6.12;100.00;99991.44;5083470;28;20044;-72
2024/01/01 07:56:23;;;;;;;13.15;1.55;;;;;;;6.13;100.00;99993.06;5077561;28;20028;-71
2024/01/01 07:58:52;;;;;;;11.10;1.80;;;;;;;6.16;100.00;99998.72;5083027;28;20529;-72
2024/01/01 08:01:18;;;;;;;10.85;1.90;;;;;;;6.11;100.00;100008.66;5066016;28;20054;-72
2024/01/01 08:03:43;;;;;;;7.03;1.80;;;;;;;6.07;100.00;100007.31;5048920;28;20502;-72
2024/01/01 08:06:09;;;;;;;7.53;1.15;;;;;;;6.01;100.00;100013.84;5064638;28;20040;-72
2024/01/01 08:08:34;;;;;;;8.82;1.20;;;;;;;5.95;100.00;100001.56;5067545;28;20036;-72
2024/01/01 08:11:00;;;;;;;10.60;1.48;;;;;;;5.95;100.00;100005.88;5067334;28;20108;-72
2024/01/01 08:13:26;;;;;;;7.63;1.23;;;;;;;5.97;100.00;100029.72;5064900;28;20036;-72
2024/01/01 08:15:51;;;;;;;6.40;1.08;;;;;;;5.92;100.00;100019.84;5083341;28;20034;-73
2024/01/01 08:18:17;;;;;;;11.40;1.52;;;;;;;6.07;100.00;100027.13;5080445;28;20093;-72
2024/01/01 08:20:43;;;;;;;7.45;1.55;;;;;;;6.01;100.00;100020.78;5080423;28;20085;-72
2024/01/01 08:23:09;;;;;;;8.77;1.77;;;;;;;5.98;100.00;100026.19;5064794;28;20033;-72
2024/01/01 08:25:35;;;;;;;10.13;1.77;;;;;;;6.08;100.00;100039.81;5065147;28;20024;-72
2024/01/01 08:28:00;;;;;;;6.35;1.17;;;;;;;5.97;100.00;100027.97;5065390;28;20043;-72
2024/01/01 08:30:26;;;;;;;10.98;2.08;;;;;;;5.99;100.00;100025.22;5059585;28;20399;-72
2024/01/01 08:32:51;;;;;;;11.25;1.58;;;;;;;6.02;100.00;100043.78;5069561;28;20032;-72
2024/01/01 08:35:16;;;;;;;12.27;1.83;;;;;;;6.03;100.00;100045.41;5073021;28;20048;-73
2024/01/01 08:37:43;;;;;;;8.95;1.23;;;;;;;6.19;100.00;100043.94;5056199;28;20041;-72
2024/01/01 08:40:10;;;;;;;11.48;1.63;;;;;;;6.13;100.00;100041.97;5065800;28;20051;-72
2024/01/01 08:42:36;;;;;;;10.40;1.42;;;;;;;6.16;100.00;100042.50;5082643;28;20739;-73
2024/01/01 08:45:05;;;;;;;10.55;1.30;;;;;;;6.11;100.00;100043.88;5075387;28;20108;-73
2024/01/01 08:47:31;;;;;;;13.77;3.00;;;;;;;6.16;100.00;100052.78;5081254;28;20165;-72
2024/01/01 08:49:57;;;;;;;10.05;1.40;;;;;;;6.09;100.00;100049.16;5058645;28;20118;-74
2024/01/01 08:52:22;;;;;;;9.52;1.85;;;;;;;6.07;100.00;100045.13;5061265;28;20029;-72
2024/01/01 08:54:48;;;;;;;10.45;1.50;;;;;;;6.16;100.00;100046.81;5062884;28;20945;-72
2024/01/01 08:57:14;;;;;;;10.35;1.40;;;;;;;6.13;100.00;100050.50;5056998;28;20041;-72
2024/01/01 08:59:39;;;;;;;17.35;2.25;;;;;;;6.15;100.00;100045.19;5073977;28;20051;-73
2024/01/01 09:02:08;;;;;;;10.48;2.40;;;;;;;6.18;100.00;100058.59;5066481;28;20749;-72
2024/01/01 09:04:33;;;;;;;11.52;2.25;;;;;;;6.22;100.00;100059.13;5063671;28;20047;-73
2024/01/01 09:07:00;;;;;;;17.83;5.50;;;;;;;6.24;100.00;100057.19;5057278;28;20031;-73
2024/01/01 09:09:29;;;;;;;26.88;7.93;;;;;;;6.20;100.00;100073.91;5066429;28;20047;-71
2024/01/01 09:11:55;;;;;;;13.52;3.42;;;;;;;6.23;100.00;100066.69;5084457;28;20398;-72
2024/01/01 09:14:21;;;;;;;19.20;4.90;;;;;;;6.23;100.00;100065.88;5079812;28;20657;-72
2024/01/01 09:16:47;;;;;;;12.80;4.13;;;;;;;6.23;100.00;100081.31;5065744;28;20043;-72
2024/01/01 09:19:14;;;;;;;7.78;2.00;;;;;;;6.28;100.00;100080.91;5087887;28;20494;-72
2024/01/01 09:21:40;;;;;;;9.60;1.65;;;;;;;6.21;100.00;100080.66;5080261;28;20060;-72
2024/01/01 09:24:08;;;;;;;6.22;1.70;;;;;;;6.26;100.00;100096.50;5081193;28;20043;-72
2024/01/01 09:26:35;;;;;;;10.43;1.73;;;;;;;6.30;100.00;100105.53;5079864;28;20055;-72
2024/01/01 09:29:01;;;;;;;10.10;1.77;;;;;;;6.29;100.00;100098.78;5075107;28;20041;-72
2024/01/01 09:31:27;;;;;;;10.68;2.67;;;;;;;6.30;100.00;100109.88;5060063;28;20044;-72
2024/01/01 09:33:54;;;;;;;14.43;3.72;;;;;;;6.26;100.00;100118.84;5083717;28;20612;-72
2024/01/01 09:36:20;;;;;;;10.43;2.42;;;;;;;6.38;100.00;100117.69;5087086;28;20071;-71
2024/01/01 09:38:45;;;;;;;18.55;2.75;;;;;;;6.44;100.00;100124.81;5086855;28;20487;-72
2024/01/01 09:41:12;;;;;;;14.52;2.13;;;;;;;6.47;100.00;100118.59;5083984;28;20055;-72
2024/01/01 09:43:38;;;;;;;8.10;2.08;;;;;;;6.56;100.00;100113.38;5055537;28;20040;-72
2024/01/01 09:46:04;;;;;;;18.45;2.53;;;;;;;6.62;100.00;100130.00;5061680;28;20028;-72
2024/01/01 09:48:30;;;;;;;13.38;2.25;;;;;;;6.59;100.00;100125.97;5069677;28;20043;-72
2024/01/01 09:50:55;;;;;;;14.77;2.47;;;;;;;6.55;100.00;100132.34;5054331;28;20043;-72
2024/01/01 09:53:20;;;;;;;14.75;3.15;;;;;;;6.60;100.00;100142.22;5062722;28;20039;-72
2024/01/01 09:55:51;;;;;;;15.82;4.18;;;;;;;6.61;100.00;100148.97;5065655;28;20399;-72
2024/01/01 09:58:17;;;;;;;13.95;3.67;;;;;;;6.71;100.00;100152.31;5060036;28;20427;-72
2024/01/01 10:00:42;;;;;;;27.65;7.43;;;;;;;6.65;100.00;100140.03;5078972;28;20050;-72
2024/01/01 10:03:11;;;;;;;14.32;2.15;;;;;;;6.60;100.00;100152.53;5084576;28;20028;-72
2024/01/01 10:05:41;;;;;;;12.88;1.65;;;;;;;6.60;100.00;100139.66;5060709;28;20020;-73
2024/01/01 10:08:14;;;;;;;6.43;1.38;;;;;;;6.58;100.00;100160.41;5064560;28;20024;-72
2024/01/01 10:10:41;;;;;;;11.18;2.45;;;;;;;6.59;100.00;100161.19;5056784;28;20028;-72
2024/01/01 10:13:11;;;;;;;11.73;1.85;;;;;;;6.64;100.00;100159.00;5086096;28;20040;-72
2024/01/01 10:15:39;;;;;;;8.30;1.88;;;;;;;6.68;100.00;100160.34;5066798;28;20380;-72
2024/01/01 10:18:09;;;;;;;14.93;2.08;;;;;;;6.79;100.00;100157.53;5066970;28;20044;-72
2024/01/01 10:20:35;;;;;;;8.32;1.30;;;;;;;6.75;100.00;100155.41;5055989;28;20028;-72
2024/01/01 10:23:17;;;;;;;6.65;1.58;;;;;;;6.77;100.00;100156.06;5066505;28;20410;-73
2024/01/01 10:25:43;;;;;;;17.63;4.25;;;;;;;6.75;100.00;100171.69;5075009;28;20044;-72
2024/01/01 10:28:09;;;;;;;11.95;2.25;;;;;;;6.76;100.00;100169.91;5057543;28;20080;-73
2024/01/01 10:30:34;;;;;;;13.63;1.95;;;;;;;6.80;100.00;100168.69;5050111;28;20067;-73
2024/01/01 10:33:01;;;;;;;12.57;2.08;;;;;;;6.90;100.00;100181.50;5066104;28;20044;-72
2024/01/01 10:35:29;;;;;;;12.18;4.53;;;;;;;6.95;100.00;100184.41;5049812;28;20498;-73
2024/01/01 10:37:57;;;;;;;14.63;1.67;;;;;;;7.04;100.00;100175.81;5068287;28;20042;-73
2024/01/01 10:40:22;;;;;;;12.88;2.67;;;;;;;7.19;100.00;100179.47;5077629;28;20085;-72
2024/01/01 10:42:49;;;;;;;9.57;2.22;;;;;;;7.27;99.28;100176.19;5083689;28;20032;-71
2024/01/01 10:45:15;;;;;;;13.77;2.60;;;;;;;7.29;99.02;100171.66;5044735;28;20032;-72
2024/01/01 10:47:42;;;;;;;28.35;5.72;;;;;;;7.35;98.26;100172.84;5059184;28;20039;-73
2024/01/01 10:50:26;;;;;;;13.70;3.60;;;;;;;7.38;98.11;100172.53;5062885;28;20044;-73
2024/01/01 10:53:29;;;;;;;18.13;4.00;;;;;;;7.39;97.82;100189.63;5084437;28;20651;-73
2024/01/01 10:56:12;;;;;;;17.97;2.80;;;;;;;7.52;96.91;100178.94;5051485;28;20116;-73
2024/01/01 10:58:40;;;;;;;15.07;2.40;;;;;;;7.59;96.84;100183.34;5080081;28;20063;-72
2024/01/01 11:01:15;;;;;;;15.90;3.42;;;;;;;7.55;97.20;100187.19;5086296;28;20030;-72
2024/01/01 11:03:46;;;;;;;11.75;1.80;;;;;;;7.58;96.44;100186.06;5080512;28;20036;-73
2024/01/01 11:06:27;;;;;;;13.55;3.00;;;;;;;7.44;96.94;100192.59;5083293;28;20028;-72
2024/01/01 11:08:54;;;;;;;13.50;2.30;;;;;;;7.47;96.25;100194.84;5091086;28;20051;-73
2024/01/01 11:11:32;;;;;;;21.25;4.05;;;;;;;7.51;97.00;100195.34;5063037;28;20029;-73
2024/01/01 11:13:58;;;;;;;13.48;1.67;;;;;;;7.44;96.80;100205.47;5063089;28;20059;-73
2024/01/01 11:16:24;;;;;;;12.57;2.33;;;;;;;7.29;97.52;100206.94;5070426;28;20080;-73
2024/01/01 11:18:51;;;;;;;11.10;1.50;;;;;;;7.25;97.29;100208.22;5060751;28;20048;-72
2024/01/01 11:21:27;;;;;;;11.30;2.58;;;;;;;7.29;97.80;100209.53;5086736;28;20031;-73
2024/01/01 11:23:53;;;;;;;7.80;1.40;;;;;;;7.33;98.28;100213.44;5068841;28;20039;-73